EDT,Max TemperatureF,Mean TemperatureF,Min TemperatureF,Max Dew PointF,MeanDew PointF,Min DewpointF,Max Humidity, Mean Humidity, Min Humidity, Max Sea Level PressureIn, Mean Sea Level PressureIn, Min Sea Level PressureIn, Max VisibilityMiles, Mean VisibilityMiles, Min VisibilityMiles, Max Wind SpeedMPH, Mean Wind SpeedMPH, Max Gust SpeedMPH,PrecipitationIn, CloudCover, Events, WindDirDegrees
2013-7-1,80,74,69,72,70,66,97,87,74,30.00,29.91,29.86,10,7,1,15,6,44,1.68,6,Rain-Thunderstorm,159
2013-7-2,84,78,73,73,71,69,94,84,69,30.17,30.08,30.00,10,10,6,14,6,21,0.04,6,Rain,187
2013-7-3,84,78,71,73,71,69,94,84,65,30.24,30.20,30.17,10,10,6,12,6,,0.05,6,Rain,193
2013-7-4,87,79,72,73,71,70,94,78,59,30.25,30.22,30.16,10,10,6,14,6,17,0.00,3,,194
2013-7-5,88,80,73,73,70,68,90,71,53,30.22,30.17,30.11,10,10,8,14,7,22,0.00,1,,207
2013-7-6,90,80,72,73,70,69,91,69,52,30.17,30.12,30.05,10,10,6,10,4,20,0.00,1,,228
2013-7-7,89,78,69,72,69,64,93,76,55,30.09,30.04,29.98,10,9,1,28,7,39,0.20,2,Rain,261
2013-7-8,82,75,68,68,67,64,93,77,56,30.09,30.06,30.03,10,9,7,12,4,,0.00,2,Rain,266
2013-7-9,84,76,70,72,69,67,93,80,67,30.10,30.06,30.00,9,5,1,12,3,,0.09,4,Rain,238
2013-7-10,86,78,69,72,70,68,100,83,59,29.99,29.93,29.84,10,6,0,14,3,20,0.06,3,Fog-Rain,247
2013-7-11,84,77,71,70,66,61,91,71,54,29.93,29.89,29.83,10,10,7,9,6,,0.00,3,Rain,322
2013-7-12,72,70,69,69,64,58,93,81,63,30.04,30.01,29.93,10,7,2,16,5,23,0.65,7,Rain,35
2013-7-13,82,76,69,71,69,66,96,85,65,30.29,30.14,30.04,10,7,2,12,7,,0.12,7,Rain,109
2013-7-14,88,79,70,73,70,68,100,77,53,30.36,30.32,30.27,10,9,4,8,3,,0.00,4,,200
2013-7-15,91,80,70,73,71,69,97,71,48,30.30,30.24,30.18,10,9,4,13,3,,0.00,0,,300
2013-7-16,91,82,73,72,69,66,91,66,44,30.25,30.21,30.17,10,8,5,10,4,,0.00,1,,347
2013-7-17,93,82,72,72,69,67,87,64,44,30.23,30.16,30.09,10,8,4,8,2,,0.00,1,,323
2013-7-18,95,83,73,76,72,68,87,66,44,30.10,30.06,29.99,10,8,4,8,3,,0.00,0,,293
2013-7-19,93,84,75,77,72,66,94,71,50,30.01,29.93,29.85,10,7,2,14,3,22,0.02,1,Rain-Thunderstorm,260
2013-7-20,89,80,73,72,69,64,87,67,55,29.88,29.83,29.78,10,8,4,17,6,28,0.00,0,,259
2013-7-21,86,78,71,71,68,65,87,71,58,29.95,29.91,29.87,10,9,6,7,4,,0.00,2,,266
2013-7-22,88,79,71,72,70,68,94,83,59,29.94,29.86,29.78,10,6,1,12,3,16,0.56,5,Rain-Thunderstorm,68
2013-7-23,84,76,71,72,69,65,100,81,56,29.79,29.69,29.62,10,8,2,16,5,23,0.18,5,Rain-Thunderstorm,281
2013-7-24,79,72,63,66,61,50,94,70,48,29.96,29.79,29.67,10,8,2,12,6,18,0.00,2,,337
2013-7-25,75,64,55,60,55,48,83,69,59,30.05,30.01,29.96,10,10,10,10,5,,0.00,5,,37
2013-7-26,81,72,63,61,57,53,87,63,39,30.09,30.05,30.02,10,10,9,10,3,,0.00,2,,314
2013-7-27,82,70,60,68,63,58,93,77,58,30.05,30.00,29.91,10,8,3,15,5,22,0.00,4,Rain,153
2013-7-28,82,74,66,70,67,64,94,81,58,29.99,29.92,29.89,10,8,2,12,4,,0.11,6,Rain-Thunderstorm,193
2013-7-29,81,70,61,70,57,50,94,64,36,30.15,30.06,29.98,10,10,7,13,6,18,0.02,1,Rain,285
2013-7-30,82,69,57,57,55,53,88,62,38,30.22,30.18,30.15,10,9,5,10,5,16,0.00,1,,303
2013-7-31,79,69,59,65,60,56,93,72,54,30.17,30.11,30.02,10,9,5,12,2,,0.00,5,Rain,172